sensor_id;sensor_type;location;lat;lon;timestamp;temperature;humidity
13600;DHT22;6871;51.34740610;4.31323160;2023-10-09T00:00:22;22.00;87.60
13600;DHT22;6871;51.34740610;4.31323160;2023-10-09T00:03:09;22.00;87.80
13600;DHT22;6871;51.34740610;4.31323160;2023-10-09T00:05:39;22.00;87.80
13600;DHT22;6871;51.34740610;4.31323160;2023-10-09T00:08:10;22.00;87.80
13600;DHT22;6871;51.34740610;4.31323160;2023-10-09T00:10:42;22.00;87.70
13600;DHT22;6871;51.34740610;4.31323160;2023-10-09T00:13:30;22.00;87.60
13600;DHT22;6871;51.34740610;4.31323160;2023-10-09T00:16:04;22.00;87.60
13600;DHT22;6871;51.34740610;4.31323160;2023-10-09T00:18:38;22.00;87.60
13600;DHT22;6871;51.34740610;4.31323160;2023-10-09T00:21:15;22.00;87.60
13600;DHT22;6871;51.34740610;4.31323160;2023-10-09T00:23:47;22.00;87.60
13600;DHT22;6871;51.34740610;4.31323160;2023-10-09T00:26:20;22.00;87.50
13600;DHT22;6871;51.34740610;4.31323160;2023-10-09T00:28:51;22.00;87.50
13600;DHT22;6871;51.34740610;4.31323160;2023-10-09T00:31:21;22.00;87.50
13600;DHT22;6871;51.34740610;4.31323160;2023-10-09T00:34:01;22.00;87.50
13600;DHT22;6871;51.34740610;4.31323160;2023-10-09T00:36:32;22.00;87.60
13600;DHT22;6871;51.34740610;4.31323160;2023-10-09T00:39:04;22.00;87.60
13600;DHT22;6871;51.34740610;4.31323160;2023-10-09T00:41:35;22.00;87.60
13600;DHT22;6871;51.34740610;4.31323160;2023-10-09T00:44:05;22.00;87.60
13600;DHT22;6871;51.34740610;4.31323160;2023-10-09T00:46:36;22.00;87.50
13600;DHT22;6871;51.34740610;4.31323160;2023-10-09T00:49:08;22.00;87.60
13600;DHT22;6871;51.34740610;4.31323160;2023-10-09T00:51:42;22.00;87.60
13600;DHT22;6871;51.34740610;4.31323160;2023-10-09T00:54:16;22.00;87.60
13600;DHT22;6871;51.34740610;4.31323160;2023-10-09T00:56:48;22.00;87.50
13600;DHT22;6871;51.34740610;4.31323160;2023-10-09T00:59:22;22.00;87.60
13600;DHT22;6871;51.34740610;4.31323160;2023-10-09T01:01:58;22.00;87.40
13600;DHT22;6871;51.34740610;4.31323160;2023-10-09T01:04:29;22.00;87.30
13600;DHT22;6871;51.34740610;4.31323160;2023-10-09T01:07:00;22.00;87.30
13600;DHT22;6871;51.34740610;4.31323160;2023-10-09T01:09:49;22.00;87.30
13600;DHT22;6871;51.34740610;4.31323160;2023-10-09T01:12:20;22.00;87.40
13600;DHT22;6871;51.34740610;4.31323160;2023-10-09T01:14:50;22.00;87.30
13600;DHT22;6871;51.34740610;4.31323160;2023-10-09T01:17:22;22.00;87.30
13600;DHT22;6871;51.34740610;4.31323160;2023-10-09T01:20:00;22.00;87.30
13600;DHT22;6871;51.34740610;4.31323160;2023-10-09T01:22:32;22.00;87.30
13600;DHT22;6871;51.34740610;4.31323160;2023-10-09T01:25:02;21.90;87.30
13600;DHT22;6871;51.34740610;4.31323160;2023-10-09T01:27:34;21.90;87.30
13600;DHT22;6871;51.34740610;4.31323160;2023-10-09T01:30:07;22.00;87.30
13600;DHT22;6871;51.34740610;4.31323160;2023-10-09T01:32:40;22.00;87.20
13600;DHT22;6871;51.34740610;4.31323160;2023-10-09T01:35:12;21.90;87.10
13600;DHT22;6871;51.34740610;4.31323160;2023-10-09T01:37:45;21.90;87.10
13600;DHT22;6871;51.34740610;4.31323160;2023-10-09T01:40:17;21.90;87.10
13600;DHT22;6871;51.34740610;4.31323160;2023-10-09T01:42:53;21.90;87.10
13600;DHT22;6871;51.34740610;4.31323160;2023-10-09T01:45:22;22.00;87.20
13600;DHT22;6871;51.34740610;4.31323160;2023-10-09T01:47:55;21.90;87.10
13600;DHT22;6871;51.34740610;4.31323160;2023-10-09T01:50:25;21.90;87.10
13600;DHT22;6871;51.34740610;4.31323160;2023-10-09T01:52:55;21.90;87.20
13600;DHT22;6871;51.34740610;4.31323160;2023-10-09T01:55:26;21.90;87.10
13600;DHT22;6871;51.34740610;4.31323160;2023-10-09T01:57:59;21.90;87.10
13600;DHT22;6871;51.34740610;4.31323160;2023-10-09T02:00:31;21.90;87.20
13600;DHT22;6871;51.34740610;4.31323160;2023-10-09T02:03:04;21.90;87.20
13600;DHT22;6871;51.34740610;4.31323160;2023-10-09T02:05:35;21.90;87.10
13600;DHT22;6871;51.34740610;4.31323160;2023-10-09T02:08:05;21.90;87.10
13600;DHT22;6871;51.34740610;4.31323160;2023-10-09T02:10:36;21.90;87.10
13600;DHT22;6871;51.34740610;4.31323160;2023-10-09T02:13:06;21.90;87.00
13600;DHT22;6871;51.34740610;4.31323160;2023-10-09T02:19:00;21.90;87.00
13600;DHT22;6871;51.34740610;4.31323160;2023-10-09T02:21:31;21.80;87.00
13600;DHT22;6871;51.34740610;4.31323160;2023-10-09T02:24:03;21.80;87.10
13600;DHT22;6871;51.34740610;4.31323160;2023-10-09T02:26:35;21.80;87.10
13600;DHT22;6871;51.34740610;4.31323160;2023-10-09T02:29:19;21.80;87.00
13600;DHT22;6871;51.34740610;4.31323160;2023-10-09T02:31:50;21.80;87.10
13600;DHT22;6871;51.34740610;4.31323160;2023-10-09T02:34:22;21.80;87.10
13600;DHT22;6871;51.34740610;4.31323160;2023-10-09T02:36:54;21.90;87.10
13600;DHT22;6871;51.34740610;4.31323160;2023-10-09T02:39:28;21.90;87.10
13600;DHT22;6871;51.34740610;4.31323160;2023-10-09T02:41:59;21.80;87.00
13600;DHT22;6871;51.34740610;4.31323160;2023-10-09T02:44:30;21.80;87.00
13600;DHT22;6871;51.34740610;4.31323160;2023-10-09T02:47:02;21.80;87.10
13600;DHT22;6871;51.34740610;4.31323160;2023-10-09T02:49:33;21.80;87.10
13600;DHT22;6871;51.34740610;4.31323160;2023-10-09T02:52:03;21.80;87.10
13600;DHT22;6871;51.34740610;4.31323160;2023-10-09T02:54:34;21.80;87.00
13600;DHT22;6871;51.34740610;4.31323160;2023-10-09T02:57:06;21.80;87.10
13600;DHT22;6871;51.34740610;4.31323160;2023-10-09T02:59:36;21.80;87.00
13600;DHT22;6871;51.34740610;4.31323160;2023-10-09T03:02:07;21.80;86.90
13600;DHT22;6871;51.34740610;4.31323160;2023-10-09T03:04:36;21.80;86.90
13600;DHT22;6871;51.34740610;4.31323160;2023-10-09T03:07:07;21.80;86.90
13600;DHT22;6871;51.34740610;4.31323160;2023-10-09T03:09:39;21.80;86.90
13600;DHT22;6871;51.34740610;4.31323160;2023-10-09T03:12:09;21.80;86.90
13600;DHT22;6871;51.34740610;4.31323160;2023-10-09T03:14:46;21.80;86.90
13600;DHT22;6871;51.34740610;4.31323160;2023-10-09T03:17:16;21.80;86.90
13600;DHT22;6871;51.34740610;4.31323160;2023-10-09T03:19:46;21.80;86.90
13600;DHT22;6871;51.34740610;4.31323160;2023-10-09T03:22:17;21.80;86.90
13600;DHT22;6871;51.34740610;4.31323160;2023-10-09T03:24:47;21.80;87.00
13600;DHT22;6871;51.34740610;4.31323160;2023-10-09T03:27:18;21.80;86.90
13600;DHT22;6871;51.34740610;4.31323160;2023-10-09T03:29:47;21.80;87.40
13600;DHT22;6871;51.34740610;4.31323160;2023-10-09T03:32:17;21.80;86.90
13600;DHT22;6871;51.34740610;4.31323160;2023-10-09T03:34:47;21.80;87.00
13600;DHT22;6871;51.34740610;4.31323160;2023-10-09T03:37:19;21.80;87.00
13600;DHT22;6871;51.34740610;4.31323160;2023-10-09T03:39:57;21.80;87.00
13600;DHT22;6871;51.34740610;4.31323160;2023-10-09T03:42:26;21.80;87.00
13600;DHT22;6871;51.34740610;4.31323160;2023-10-09T03:44:57;21.80;87.00
13600;DHT22;6871;51.34740610;4.31323160;2023-10-09T03:47:27;21.80;86.90
13600;DHT22;6871;51.34740610;4.31323160;2023-10-09T03:49:57;21.80;87.00
13600;DHT22;6871;51.34740610;4.31323160;2023-10-09T03:52:29;21.80;87.00
13600;DHT22;6871;51.34740610;4.31323160;2023-10-09T03:54:59;21.80;87.00
13600;DHT22;6871;51.34740610;4.31323160;2023-10-09T03:57:30;21.80;87.00
13600;DHT22;6871;51.34740610;4.31323160;2023-10-09T04:00:01;21.80;86.90
13600;DHT22;6871;51.34740610;4.31323160;2023-10-09T04:02:34;21.80;86.90
13600;DHT22;6871;51.34740610;4.31323160;2023-10-09T04:05:05;21.70;86.90
13600;DHT22;6871;51.34740610;4.31323160;2023-10-09T04:07:36;21.80;86.80
13600;DHT22;6871;51.34740610;4.31323160;2023-10-09T04:10:06;21.80;86.90
13600;DHT22;6871;51.34740610;4.31323160;2023-10-09T04:12:42;21.70;87.10
13600;DHT22;6871;51.34740610;4.31323160;2023-10-09T04:15:12;21.70;86.90
13600;DHT22;6871;51.34740610;4.31323160;2023-10-09T04:21:07;21.70;86.90
13600;DHT22;6871;51.34740610;4.31323160;2023-10-09T04:23:47;21.70;87.10
13600;DHT22;6871;51.34740610;4.31323160;2023-10-09T04:26:36;21.70;87.10
13600;DHT22;6871;51.34740610;4.31323160;2023-10-09T04:29:06;21.70;87.10
13600;DHT22;6871;51.34740610;4.31323160;2023-10-09T04:31:38;21.70;87.10
13600;DHT22;6871;51.34740610;4.31323160;2023-10-09T04:34:07;21.70;87.00
13600;DHT22;6871;51.34740610;4.31323160;2023-10-09T04:36:56;21.70;87.10
13600;DHT22;6871;51.34740610;4.31323160;2023-10-09T04:39:28;21.70;87.10
13600;DHT22;6871;51.34740610;4.31323160;2023-10-09T04:42:15;21.70;87.10
13600;DHT22;6871;51.34740610;4.31323160;2023-10-09T04:45:04;21.70;87.10
13600;DHT22;6871;51.34740610;4.31323160;2023-10-09T04:47:52;21.70;87.10
13600;DHT22;6871;51.34740610;4.31323160;2023-10-09T04:50:40;21.60;87.00
13600;DHT22;6871;51.34740610;4.31323160;2023-10-09T04:53:27;21.70;87.10
13600;DHT22;6871;51.34740610;4.31323160;2023-10-09T04:55:59;21.70;87.10
13600;DHT22;6871;51.34740610;4.31323160;2023-10-09T04:58:31;21.70;87.00
13600;DHT22;6871;51.34740610;4.31323160;2023-10-09T05:01:05;21.60;87.00
13600;DHT22;6871;51.34740610;4.31323160;2023-10-09T05:03:45;21.70;87.10
13600;DHT22;6871;51.34740610;4.31323160;2023-10-09T05:06:17;21.70;87.10
13600;DHT22;6871;51.34740610;4.31323160;2023-10-09T05:09:16;21.70;87.10
13600;DHT22;6871;51.34740610;4.31323160;2023-10-09T05:11:49;21.70;87.10
13600;DHT22;6871;51.34740610;4.31323160;2023-10-09T05:14:38;21.70;87.00
13600;DHT22;6871;51.34740610;4.31323160;2023-10-09T05:17:11;21.60;87.00
13600;DHT22;6871;51.34740610;4.31323160;2023-10-09T05:19:45;21.60;87.00
13600;DHT22;6871;51.34740610;4.31323160;2023-10-09T05:22:25;21.60;87.80
13600;DHT22;6871;51.34740610;4.31323160;2023-10-09T05:25:15;21.60;87.00
13600;DHT22;6871;51.34740610;4.31323160;2023-10-09T05:27:46;21.60;87.00
13600;DHT22;6871;51.34740610;4.31323160;2023-10-09T05:30:23;21.60;87.00
13600;DHT22;6871;51.34740610;4.31323160;2023-10-09T05:32:54;21.70;87.10
13600;DHT22;6871;51.34740610;4.31323160;2023-10-09T05:35:34;21.60;87.10
13600;DHT22;6871;51.34740610;4.31323160;2023-10-09T05:38:22;21.60;87.60
13600;DHT22;6871;51.34740610;4.31323160;2023-10-09T05:44:09;21.60;86.90
13600;DHT22;6871;51.34740610;4.31323160;2023-10-09T05:50:36;21.60;87.00
13600;DHT22;6871;51.34740610;4.31323160;2023-10-09T05:56:34;21.50;88.00
13600;DHT22;6871;51.34740610;4.31323160;2023-10-09T05:59:21;21.50;87.10
13600;DHT22;6871;51.34740610;4.31323160;2023-10-09T06:02:10;21.50;87.20
13600;DHT22;6871;51.34740610;4.31323160;2023-10-09T06:04:56;21.50;87.30
13600;DHT22;6871;51.34740610;4.31323160;2023-10-09T06:07:28;21.50;87.20
13600;DHT22;6871;51.34740610;4.31323160;2023-10-09T06:10:11;21.50;87.10
13600;DHT22;6871;51.34740610;4.31323160;2023-10-09T06:16:10;21.50;87.10
13600;DHT22;6871;51.34740610;4.31323160;2023-10-09T06:19:05;21.50;87.10
13600;DHT22;6871;51.34740610;4.31323160;2023-10-09T06:21:54;21.50;87.20
13600;DHT22;6871;51.34740610;4.31323160;2023-10-09T06:24:41;21.50;87.20
13600;DHT22;6871;51.34740610;4.31323160;2023-10-09T06:27:14;21.50;87.10
13600;DHT22;6871;51.34740610;4.31323160;2023-10-09T06:29:55;21.50;87.10
13600;DHT22;6871;51.34740610;4.31323160;2023-10-09T06:32:43;21.50;87.10
13600;DHT22;6871;51.34740610;4.31323160;2023-10-09T06:35:38;21.50;87.50
13600;DHT22;6871;51.34740610;4.31323160;2023-10-09T06:38:10;21.40;87.90
13600;DHT22;6871;51.34740610;4.31323160;2023-10-09T06:40:50;21.40;87.60
13600;DHT22;6871;51.34740610;4.31323160;2023-10-09T06:43:37;21.50;87.40
13600;DHT22;6871;51.34740610;4.31323160;2023-10-09T06:46:16;21.50;87.30
13600;DHT22;6871;51.34740610;4.31323160;2023-10-09T06:49:07;21.50;87.30
13600;DHT22;6871;51.34740610;4.31323160;2023-10-09T06:51:54;21.50;87.20
13600;DHT22;6871;51.34740610;4.31323160;2023-10-09T06:54:25;21.50;87.10
13600;DHT22;6871;51.34740610;4.31323160;2023-10-09T06:56:57;21.50;87.10
13600;DHT22;6871;51.34740610;4.31323160;2023-10-09T06:59:43;21.50;87.00
13600;DHT22;6871;51.34740610;4.31323160;2023-10-09T07:09:06;21.50;87.50
13600;DHT22;6871;51.34740610;4.31323160;2023-10-09T07:11:50;21.40;87.30
13600;DHT22;6871;51.34740610;4.31323160;2023-10-09T07:14:45;21.50;87.30
13600;DHT22;6871;51.34740610;4.31323160;2023-10-09T07:17:33;21.50;87.30
13600;DHT22;6871;51.34740610;4.31323160;2023-10-09T07:20:22;21.50;87.20
13600;DHT22;6871;51.34740610;4.31323160;2023-10-09T07:23:15;21.50;87.10
13600;DHT22;6871;51.34740610;4.31323160;2023-10-09T07:25:45;21.50;87.80
13600;DHT22;6871;51.34740610;4.31323160;2023-10-09T07:28:37;21.50;87.10
13600;DHT22;6871;51.34740610;4.31323160;2023-10-09T07:34:17;21.60;87.00
13600;DHT22;6871;51.34740610;4.31323160;2023-10-09T07:37:13;21.60;86.90
13600;DHT22;6871;51.34740610;4.31323160;2023-10-09T07:40:00;21.60;87.00
13600;DHT22;6871;51.34740610;4.31323160;2023-10-09T07:49:24;21.60;86.90
13600;DHT22;6871;51.34740610;4.31323160;2023-10-09T07:58:50;21.50;87.10
13600;DHT22;6871;51.34740610;4.31323160;2023-10-09T08:01:20;21.50;87.10
13600;DHT22;6871;51.34740610;4.31323160;2023-10-09T08:04:07;21.50;87.00
13600;DHT22;6871;51.34740610;4.31323160;2023-10-09T08:06:39;21.50;87.40
13600;DHT22;6871;51.34740610;4.31323160;2023-10-09T08:09:12;21.50;87.30
13600;DHT22;6871;51.34740610;4.31323160;2023-10-09T08:12:07;21.50;87.10
13600;DHT22;6871;51.34740610;4.31323160;2023-10-09T08:15:06;21.50;86.90
13600;DHT22;6871;51.34740610;4.31323160;2023-10-09T08:20:27;21.60;86.90
13600;DHT22;6871;51.34740610;4.31323160;2023-10-09T08:22:58;21.60;86.70
13600;DHT22;6871;51.34740610;4.31323160;2023-10-09T08:25:29;21.60;86.60
13600;DHT22;6871;51.34740610;4.31323160;2023-10-09T08:28:01;21.60;86.70
13600;DHT22;6871;51.34740610;4.31323160;2023-10-09T08:31:01;21.60;86.60
13600;DHT22;6871;51.34740610;4.31323160;2023-10-09T08:33:49;21.60;86.50
13600;DHT22;6871;51.34740610;4.31323160;2023-10-09T08:36:25;21.60;86.50
13600;DHT22;6871;51.34740610;4.31323160;2023-10-09T08:39:02;21.60;86.60
13600;DHT22;6871;51.34740610;4.31323160;2023-10-09T08:41:32;21.60;86.50
13600;DHT22;6871;51.34740610;4.31323160;2023-10-09T08:44:06;21.60;86.50
13600;DHT22;6871;51.34740610;4.31323160;2023-10-09T08:46:36;21.60;86.30
13600;DHT22;6871;51.34740610;4.31323160;2023-10-09T08:49:06;21.70;86.40
13600;DHT22;6871;51.34740610;4.31323160;2023-10-09T08:51:37;21.70;86.40
13600;DHT22;6871;51.34740610;4.31323160;2023-10-09T08:54:08;21.70;86.30
13600;DHT22;6871;51.34740610;4.31323160;2023-10-09T08:56:39;21.70;86.30
13600;DHT22;6871;51.34740610;4.31323160;2023-10-09T08:59:10;21.70;86.30
13600;DHT22;6871;51.34740610;4.31323160;2023-10-09T09:01:39;21.60;86.60
13600;DHT22;6871;51.34740610;4.31323160;2023-10-09T09:04:09;21.60;86.60
13600;DHT22;6871;51.34740610;4.31323160;2023-10-09T09:06:39;21.70;86.50
13600;DHT22;6871;51.34740610;4.31323160;2023-10-09T09:12:30;21.70;86.50
13600;DHT22;6871;51.34740610;4.31323160;2023-10-09T09:15:01;21.60;86.40
13600;DHT22;6871;51.34740610;4.31323160;2023-10-09T09:17:33;21.70;86.60
13600;DHT22;6871;51.34740610;4.31323160;2023-10-09T09:20:21;21.70;86.60
13600;DHT22;6871;51.34740610;4.31323160;2023-10-09T09:22:55;21.70;86.50
13600;DHT22;6871;51.34740610;4.31323160;2023-10-09T09:25:27;21.70;86.40
13600;DHT22;6871;51.34740610;4.31323160;2023-10-09T09:27:57;21.80;86.50
13600;DHT22;6871;51.34740610;4.31323160;2023-10-09T09:30:28;21.70;86.40
13600;DHT22;6871;51.34740610;4.31323160;2023-10-09T09:33:17;21.70;86.50
13600;DHT22;6871;51.34740610;4.31323160;2023-10-09T09:36:03;21.70;86.40
13600;DHT22;6871;51.34740610;4.31323160;2023-10-09T09:38:34;21.70;86.70
13600;DHT22;6871;51.34740610;4.31323160;2023-10-09T09:41:10;21.70;86.60
13600;DHT22;6871;51.34740610;4.31323160;2023-10-09T09:43:41;21.70;86.50
13600;DHT22;6871;51.34740610;4.31323160;2023-10-09T09:49:22;21.70;86.70
13600;DHT22;6871;51.34740610;4.31323160;2023-10-09T09:51:52;21.70;86.50
13600;DHT22;6871;51.34740610;4.31323160;2023-10-09T09:54:21;21.70;86.60
13600;DHT22;6871;51.34740610;4.31323160;2023-10-09T09:56:53;21.80;86.50
13600;DHT22;6871;51.34740610;4.31323160;2023-10-09T09:59:26;21.80;86.30
13600;DHT22;6871;51.34740610;4.31323160;2023-10-09T10:02:00;21.80;86.30
13600;DHT22;6871;51.34740610;4.31323160;2023-10-09T10:04:35;21.80;86.20
13600;DHT22;6871;51.34740610;4.31323160;2023-10-09T10:07:06;21.80;86.20
13600;DHT22;6871;51.34740610;4.31323160;2023-10-09T10:09:39;21.80;86.20
13600;DHT22;6871;51.34740610;4.31323160;2023-10-09T10:12:10;21.80;86.80
13600;DHT22;6871;51.34740610;4.31323160;2023-10-09T10:15:16;21.80;87.50
13600;DHT22;6871;51.34740610;4.31323160;2023-10-09T10:18:17;21.80;86.50
13600;DHT22;6871;51.34740610;4.31323160;2023-10-09T10:21:16;21.80;86.40
13600;DHT22;6871;51.34740610;4.31323160;2023-10-09T10:23:48;21.90;86.60
13600;DHT22;6871;51.34740610;4.31323160;2023-10-09T10:26:36;21.80;86.50
13600;DHT22;6871;51.34740610;4.31323160;2023-10-09T10:29:33;21.80;86.50
13600;DHT22;6871;51.34740610;4.31323160;2023-10-09T10:32:03;21.80;86.90
13600;DHT22;6871;51.34740610;4.31323160;2023-10-09T10:34:54;21.80;87.80
13600;DHT22;6871;51.34740610;4.31323160;2023-10-09T10:37:35;21.80;87.50
13600;DHT22;6871;51.34740610;4.31323160;2023-10-09T10:40:08;21.70;88.40
13600;DHT22;6871;51.34740610;4.31323160;2023-10-09T10:42:48;21.60;88.80
13600;DHT22;6871;51.34740610;4.31323160;2023-10-09T10:45:20;21.50;89.80
13600;DHT22;6871;51.34740610;4.31323160;2023-10-09T10:48:02;21.40;90.20
13600;DHT22;6871;51.34740610;4.31323160;2023-10-09T10:50:34;21.30;90.30
13600;DHT22;6871;51.34740610;4.31323160;2023-10-09T10:53:12;21.40;90.00
13600;DHT22;6871;51.34740610;4.31323160;2023-10-09T10:55:56;21.50;89.40
13600;DHT22;6871;51.34740610;4.31323160;2023-10-09T10:58:26;21.60;88.70
13600;DHT22;6871;51.34740610;4.31323160;2023-10-09T11:00:56;21.70;88.30
13600;DHT22;6871;51.34740610;4.31323160;2023-10-09T11:03:34;21.80;88.20
13600;DHT22;6871;51.34740610;4.31323160;2023-10-09T11:06:08;21.80;87.90
13600;DHT22;6871;51.34740610;4.31323160;2023-10-09T11:08:45;21.80;87.80
13600;DHT22;6871;51.34740610;4.31323160;2023-10-09T11:11:17;21.80;87.60
13600;DHT22;6871;51.34740610;4.31323160;2023-10-09T11:13:47;21.90;87.50
13600;DHT22;6871;51.34740610;4.31323160;2023-10-09T11:16:25;21.90;87.60
13600;DHT22;6871;51.34740610;4.31323160;2023-10-09T11:19:11;21.90;87.60
13600;DHT22;6871;51.34740610;4.31323160;2023-10-09T11:22:03;21.90;87.50
13600;DHT22;6871;51.34740610;4.31323160;2023-10-09T11:24:51;22.00;87.50
13600;DHT22;6871;51.34740610;4.31323160;2023-10-09T11:27:50;21.90;87.50
13600;DHT22;6871;51.34740610;4.31323160;2023-10-09T11:30:31;21.80;87.90
13600;DHT22;6871;51.34740610;4.31323160;2023-10-09T11:33:08;21.90;87.80
13600;DHT22;6871;51.34740610;4.31323160;2023-10-09T11:35:54;22.00;87.70
13600;DHT22;6871;51.34740610;4.31323160;2023-10-09T11:38:25;22.00;87.60
13600;DHT22;6871;51.34740610;4.31323160;2023-10-09T11:40:56;22.00;87.50
13600;DHT22;6871;51.34740610;4.31323160;2023-10-09T11:44:07;22.00;87.40
13600;DHT22;6871;51.34740610;4.31323160;2023-10-09T11:46:40;22.00;87.40
13600;DHT22;6871;51.34740610;4.31323160;2023-10-09T11:49:17;22.00;87.30
13600;DHT22;6871;51.34740610;4.31323160;2023-10-09T11:55:26;22.00;87.40
13600;DHT22;6871;51.34740610;4.31323160;2023-10-09T11:57:58;21.80;88.10
13600;DHT22;6871;51.34740610;4.31323160;2023-10-09T12:00:28;21.70;89.00
13600;DHT22;6871;51.34740610;4.31323160;2023-10-09T12:02:57;21.80;88.80
13600;DHT22;6871;51.34740610;4.31323160;2023-10-09T12:05:28;21.80;89.00
13600;DHT22;6871;51.34740610;4.31323160;2023-10-09T12:07:58;21.90;88.40
13600;DHT22;6871;51.34740610;4.31323160;2023-10-09T12:10:28;21.80;88.60
13600;DHT22;6871;51.34740610;4.31323160;2023-10-09T12:12:57;21.90;88.50
13600;DHT22;6871;51.34740610;4.31323160;2023-10-09T12:15:27;21.90;88.60
13600;DHT22;6871;51.34740610;4.31323160;2023-10-09T12:17:59;21.80;89.10
13600;DHT22;6871;51.34740610;4.31323160;2023-10-09T12:20:30;21.80;88.80
13600;DHT22;6871;51.34740610;4.31323160;2023-10-09T12:23:00;22.00;88.50
13600;DHT22;6871;51.34740610;4.31323160;2023-10-09T12:32:16;22.00;88.00
13600;DHT22;6871;51.34740610;4.31323160;2023-10-09T12:34:47;22.00;87.90
13600;DHT22;6871;51.34740610;4.31323160;2023-10-09T12:37:18;21.90;88.40
13600;DHT22;6871;51.34740610;4.31323160;2023-10-09T12:39:48;21.90;88.40
13600;DHT22;6871;51.34740610;4.31323160;2023-10-09T12:42:19;21.80;89.10
13600;DHT22;6871;51.34740610;4.31323160;2023-10-09T12:44:48;21.80;89.40
13600;DHT22;6871;51.34740610;4.31323160;2023-10-09T12:47:19;21.80;89.40
13600;DHT22;6871;51.34740610;4.31323160;2023-10-09T12:49:48;21.90;89.00
13600;DHT22;6871;51.34740610;4.31323160;2023-10-09T12:52:17;22.00;88.80
13600;DHT22;6871;51.34740610;4.31323160;2023-10-09T12:54:48;22.00;88.80
13600;DHT22;6871;51.34740610;4.31323160;2023-10-09T12:57:18;22.00;88.90
13600;DHT22;6871;51.34740610;4.31323160;2023-10-09T12:59:47;21.90;88.80
13600;DHT22;6871;51.34740610;4.31323160;2023-10-09T13:02:16;22.00;88.90
13600;DHT22;6871;51.34740610;4.31323160;2023-10-09T13:04:57;22.00;88.90
13600;DHT22;6871;51.34740610;4.31323160;2023-10-09T13:07:34;22.00;89.10
13600;DHT22;6871;51.34740610;4.31323160;2023-10-09T13:10:04;22.00;88.80
13600;DHT22;6871;51.34740610;4.31323160;2023-10-09T13:12:51;22.00;89.00
13600;DHT22;6871;51.34740610;4.31323160;2023-10-09T13:15:23;22.00;88.90
13600;DHT22;6871;51.34740610;4.31323160;2023-10-09T13:17:54;22.10;88.70
13600;DHT22;6871;51.34740610;4.31323160;2023-10-09T13:20:24;22.10;88.50
13600;DHT22;6871;51.34740610;4.31323160;2023-10-09T13:22:54;22.10;88.60
13600;DHT22;6871;51.34740610;4.31323160;2023-10-09T13:25:25;22.10;88.60
13600;DHT22;6871;51.34740610;4.31323160;2023-10-09T13:27:56;22.10;88.40
13600;DHT22;6871;51.34740610;4.31323160;2023-10-09T13:30:25;22.10;88.40
13600;DHT22;6871;51.34740610;4.31323160;2023-10-09T13:36:45;22.10;88.30
13600;DHT22;6871;51.34740610;4.31323160;2023-10-09T13:39:19;22.10;88.60
13600;DHT22;6871;51.34740610;4.31323160;2023-10-09T13:48:32;22.00;89.00
13600;DHT22;6871;51.34740610;4.31323160;2023-10-09T13:51:32;22.00;88.80
13600;DHT22;6871;51.34740610;4.31323160;2023-10-09T13:54:12;22.10;88.70
13600;DHT22;6871;51.34740610;4.31323160;2023-10-09T13:56:48;22.10;88.60
13600;DHT22;6871;51.34740610;4.31323160;2023-10-09T13:59:27;22.10;88.40
13600;DHT22;6871;51.34740610;4.31323160;2023-10-09T14:01:58;22.10;88.40
13600;DHT22;6871;51.34740610;4.31323160;2023-10-09T14:04:41;22.10;88.30
13600;DHT22;6871;51.34740610;4.31323160;2023-10-09T14:07:11;22.10;88.20
13600;DHT22;6871;51.34740610;4.31323160;2023-10-09T14:12:40;22.10;88.70
13600;DHT22;6871;51.34740610;4.31323160;2023-10-09T14:15:11;22.00;89.00
13600;DHT22;6871;51.34740610;4.31323160;2023-10-09T14:17:54;22.00;88.90
13600;DHT22;6871;51.34740610;4.31323160;2023-10-09T14:20:25;22.10;88.70
13600;DHT22;6871;51.34740610;4.31323160;2023-10-09T14:22:56;22.10;88.60
13600;DHT22;6871;51.34740610;4.31323160;2023-10-09T14:25:25;22.10;88.50
13600;DHT22;6871;51.34740610;4.31323160;2023-10-09T14:27:58;22.10;88.70
13600;DHT22;6871;51.34740610;4.31323160;2023-10-09T14:30:28;22.20;88.60
13600;DHT22;6871;51.34740610;4.31323160;2023-10-09T14:33:01;22.10;88.60
13600;DHT22;6871;51.34740610;4.31323160;2023-10-09T14:35:37;22.20;88.50
13600;DHT22;6871;51.34740610;4.31323160;2023-10-09T14:38:08;22.20;88.40
13600;DHT22;6871;51.34740610;4.31323160;2023-10-09T14:43:36;22.20;88.40
13600;DHT22;6871;51.34740610;4.31323160;2023-10-09T14:46:05;22.20;88.30
13600;DHT22;6871;51.34740610;4.31323160;2023-10-09T14:48:37;22.20;88.30
13600;DHT22;6871;51.34740610;4.31323160;2023-10-09T14:54:37;22.20;88.50
13600;DHT22;6871;51.34740610;4.31323160;2023-10-09T14:57:08;22.10;88.80
13600;DHT22;6871;51.34740610;4.31323160;2023-10-09T14:59:40;22.10;88.80
13600;DHT22;6871;51.34740610;4.31323160;2023-10-09T15:02:10;22.10;89.10
13600;DHT22;6871;51.34740610;4.31323160;2023-10-09T15:04:42;22.10;89.40
13600;DHT22;6871;51.34740610;4.31323160;2023-10-09T15:07:12;22.20;89.60
13600;DHT22;6871;51.34740610;4.31323160;2023-10-09T15:09:43;22.20;89.70
13600;DHT22;6871;51.34740610;4.31323160;2023-10-09T15:12:13;22.20;89.70
13600;DHT22;6871;51.34740610;4.31323160;2023-10-09T15:57:45;22.60;88.30
13600;DHT22;6871;51.34740610;4.31323160;2023-10-09T16:00:16;22.50;88.80
13600;DHT22;6871;51.34740610;4.31323160;2023-10-09T16:02:47;22.40;88.80
13600;DHT22;6871;51.34740610;4.31323160;2023-10-09T16:05:18;22.40;88.80
13600;DHT22;6871;51.34740610;4.31323160;2023-10-09T16:07:49;22.40;88.90
13600;DHT22;6871;51.34740610;4.31323160;2023-10-09T16:10:19;22.40;88.90
13600;DHT22;6871;51.34740610;4.31323160;2023-10-09T16:12:48;22.40;88.90
13600;DHT22;6871;51.34740610;4.31323160;2023-10-09T16:15:19;22.30;88.90
13600;DHT22;6871;51.34740610;4.31323160;2023-10-09T16:17:50;22.30;88.90
13600;DHT22;6871;51.34740610;4.31323160;2023-10-09T16:20:21;22.30;88.90
13600;DHT22;6871;51.34740610;4.31323160;2023-10-09T16:22:52;22.30;89.00
13600;DHT22;6871;51.34740610;4.31323160;2023-10-09T16:25:23;22.30;88.90